Temple, Maine
Current Conditions -  °F | °C
As of 6:15 PM on Wednesday 26 Nov 2014 (Local Time) from KWVL Reporting Station
Overcast Overcast  
Wind Chill: -5°   Ceiling: 500
Heat Index:   Visibility: 0.75mi
Dew Point: -3°   Wind: 10mph
Humidity: 80%   Direction: 30°NNE
Pressure: 30.01"   Gusts: NA
Location:  44.68°N, 70.23°W
Report Text: KWVL 262315Z 03009KT 3/4SM OVC005 00/M03 A3001 RMK AO1 P0001
Loading
Personal Weather Stations






























Interactive Weather Map New forecast layout! Learn more

10-Day Weather Forecast

Advertisements
Track Severe Weather on mobile